createdAt,value
2019-03-04T00:00:47.245Z,1.80
2019-03-04T00:03:14.208Z,1.73
2019-03-04T00:05:41.211Z,1.73
2019-03-04T00:08:08.188Z,1.87
2019-03-04T00:10:35.142Z,1.77
2019-03-04T00:13:02.123Z,2.10
2019-03-04T00:15:29.104Z,1.70
2019-03-04T00:17:56.053Z,1.60
2019-03-04T00:20:24.421Z,1.70
2019-03-04T00:22:51.391Z,1.80
2019-03-04T00:27:55.275Z,1.87
2019-03-04T00:30:22.237Z,1.90
2019-03-04T00:32:49.207Z,1.47
2019-03-04T00:35:16.175Z,1.70
2019-03-04T00:37:43.112Z,1.80
2019-03-04T00:40:10.092Z,1.60
2019-03-04T00:42:37.054Z,1.70
2019-03-04T00:45:04.023Z,1.83
2019-03-04T00:47:30.974Z,1.73
2019-03-04T00:49:57.924Z,1.80
2019-03-04T00:52:24.876Z,1.57
2019-03-04T00:54:51.804Z,1.83
2019-03-04T00:57:18.772Z,1.90
2019-03-04T00:59:45.717Z,1.40
2019-03-04T01:02:12.685Z,1.23
2019-03-04T01:04:39.643Z,1.50
2019-03-04T01:07:06.581Z,1.40
2019-03-04T01:09:33.508Z,1.07
2019-03-04T01:12:00.464Z,1.20
2019-03-04T01:14:27.408Z,1.57
2019-03-04T01:16:54.356Z,1.30
2019-03-04T01:19:21.373Z,1.40
2019-03-04T01:21:48.718Z,1.10
2019-03-04T01:24:15.699Z,1.37
2019-03-04T01:26:42.653Z,1.27
2019-03-04T01:29:09.631Z,1.23
2019-03-04T01:31:36.573Z,1.10
2019-03-04T01:34:03.544Z,1.20
2019-03-04T01:36:30.504Z,1.40
2019-03-04T01:38:57.429Z,1.13
2019-03-04T01:41:24.395Z,1.47
2019-03-04T01:43:51.352Z,2.17
2019-03-04T01:46:18.292Z,1.50
2019-03-04T01:48:45.260Z,1.53
2019-03-04T01:51:12.205Z,1.10
2019-03-04T01:53:39.155Z,1.30
2019-03-04T01:56:06.144Z,1.13
2019-03-04T01:58:33.137Z,1.47
2019-03-04T02:01:00.079Z,1.30
2019-03-04T02:03:27.039Z,1.30
2019-03-04T02:05:53.983Z,1.40
2019-03-04T02:08:20.924Z,1.27
2019-03-04T02:10:47.887Z,1.30
2019-03-04T02:13:14.819Z,1.40
2019-03-04T02:15:41.764Z,1.23
2019-03-04T02:18:08.715Z,1.30
2019-03-04T02:20:35.648Z,1.40
2019-03-04T02:23:03.063Z,1.17
2019-03-04T02:25:55.396Z,1.40
2019-03-04T02:28:22.348Z,1.57
2019-03-04T02:30:49.302Z,1.33
2019-03-04T02:33:16.325Z,1.53
2019-03-04T02:35:43.259Z,1.60
2019-03-04T02:38:10.224Z,1.40
2019-03-04T02:40:37.186Z,1.40
2019-03-04T02:43:04.145Z,1.50
2019-03-04T02:45:31.090Z,1.40
2019-03-04T02:47:58.056Z,1.33
2019-03-04T02:50:24.999Z,1.50
2019-03-04T02:52:51.928Z,1.20
2019-03-04T02:55:18.910Z,1.53
2019-03-04T02:57:45.881Z,1.40
2019-03-04T03:00:14.416Z,1.20
2019-03-04T03:02:41.382Z,1.40
2019-03-04T03:05:08.365Z,1.20
2019-03-04T03:07:35.341Z,1.50
2019-03-04T03:10:02.348Z,1.40
2019-03-04T03:12:29.573Z,1.50
2019-03-04T03:14:56.488Z,1.40
2019-03-04T03:17:23.461Z,1.30
2019-03-04T03:19:50.393Z,1.33
2019-03-04T03:22:17.324Z,1.50
2019-03-04T03:24:44.461Z,1.30
2019-03-04T03:27:11.421Z,1.50
2019-03-04T03:29:38.369Z,1.20
2019-03-04T03:32:05.379Z,1.10
2019-03-04T03:34:32.273Z,1.30
2019-03-04T03:36:59.225Z,1.30
2019-03-04T03:39:26.205Z,1.37
2019-03-04T03:41:53.149Z,1.07
2019-03-04T03:44:20.107Z,1.20
2019-03-04T03:46:47.051Z,1.30
2019-03-04T03:49:14.018Z,1.20
2019-03-04T03:51:40.982Z,1.40
2019-03-04T03:54:07.958Z,1.40
2019-03-04T03:56:34.894Z,1.50
2019-03-04T03:59:01.831Z,1.30
2019-03-04T04:01:28.796Z,1.50
2019-03-04T04:03:55.746Z,1.43
2019-03-04T04:06:22.697Z,1.60
2019-03-04T04:08:49.656Z,1.60
2019-03-04T04:11:16.605Z,1.47
2019-03-04T04:13:43.552Z,1.30
2019-03-04T04:16:10.523Z,1.20
2019-03-04T04:18:37.459Z,1.43
2019-03-04T04:21:04.423Z,1.27
2019-03-04T04:23:31.394Z,1.50
2019-03-04T04:25:58.537Z,1.03
2019-03-04T04:28:25.525Z,1.50
2019-03-04T04:30:52.473Z,1.60
2019-03-04T04:33:19.451Z,1.37
2019-03-04T04:35:46.384Z,1.30
2019-03-04T04:38:13.353Z,1.40
2019-03-04T04:40:40.293Z,1.40
2019-03-04T04:43:07.271Z,1.37
2019-03-04T04:45:34.216Z,1.17
2019-03-04T04:48:01.429Z,1.50
2019-03-04T04:50:28.604Z,1.60
2019-03-04T04:52:55.563Z,1.50
2019-03-04T04:55:22.495Z,1.10
2019-03-04T04:57:49.447Z,1.40
2019-03-04T05:00:16.411Z,1.10
2019-03-04T05:02:43.348Z,1.40
2019-03-04T05:05:10.281Z,1.50
2019-03-04T05:07:37.247Z,1.17
2019-03-04T05:10:06.664Z,1.30
2019-03-04T05:12:33.635Z,1.20
2019-03-04T05:15:00.597Z,1.53
2019-03-04T05:17:27.527Z,1.20
2019-03-04T05:19:54.517Z,1.30
2019-03-04T05:22:21.469Z,1.40
2019-03-04T05:24:48.432Z,1.07
2019-03-04T05:27:16.689Z,1.40
2019-03-04T05:29:45.836Z,1.40
2019-03-04T05:32:10.599Z,1.27
2019-03-04T05:34:37.560Z,1.30
2019-03-04T05:37:04.493Z,1.30
2019-03-04T05:39:31.413Z,1.30
2019-03-04T05:41:58.348Z,1.53
2019-03-04T05:44:25.301Z,1.37
2019-03-04T05:46:52.231Z,1.30
2019-03-04T05:49:19.195Z,1.20
2019-03-04T05:51:46.132Z,1.37
2019-03-04T05:54:13.065Z,1.20
2019-03-04T05:56:40.023Z,1.10
2019-03-04T05:59:06.973Z,1.13
2019-03-04T06:01:36.024Z,1.30
2019-03-04T06:04:07.932Z,1.13
2019-03-04T06:06:59.599Z,1.13
2019-03-04T06:09:26.561Z,1.47
2019-03-04T06:11:53.487Z,1.40
2019-03-04T06:14:20.455Z,1.00
2019-03-04T06:16:47.739Z,1.30
2019-03-04T06:19:14.390Z,1.53
2019-03-04T06:21:41.346Z,1.40
2019-03-04T06:24:08.285Z,1.67
2019-03-04T06:26:35.230Z,1.70
2019-03-04T06:29:03.363Z,1.30
2019-03-04T06:31:30.320Z,1.10
2019-03-04T06:33:57.261Z,1.17
2019-03-04T06:36:24.208Z,1.30
2019-03-04T06:38:51.210Z,1.20
2019-03-04T06:41:18.144Z,1.20
2019-03-04T06:43:45.088Z,1.30
2019-03-04T06:46:12.056Z,1.40
2019-03-04T06:48:39.005Z,1.47
2019-03-04T06:51:07.524Z,1.40
2019-03-04T06:53:41.127Z,1.50
2019-03-04T06:56:21.577Z,1.30
2019-03-04T06:58:50.531Z,1.33
2019-03-04T07:01:23.779Z,1.50
2019-03-04T07:04:02.125Z,1.60
2019-03-04T07:06:29.072Z,1.20
2019-03-04T07:09:15.406Z,1.50
2019-03-04T07:11:44.852Z,1.63
2019-03-04T07:14:11.781Z,1.40
2019-03-04T07:16:38.765Z,1.50
2019-03-04T07:19:07.940Z,1.57
2019-03-04T07:21:34.867Z,1.80
2019-03-04T07:24:01.832Z,1.53
2019-03-04T07:26:28.769Z,1.43
2019-03-04T07:28:55.706Z,1.40
2019-03-04T07:31:24.032Z,1.60
2019-03-04T07:33:50.956Z,2.47
2019-03-04T07:36:17.894Z,8.30
2019-03-04T07:38:53.923Z,2.10
2019-03-04T07:41:20.871Z,1.80
2019-03-04T07:43:47.816Z,2.20
2019-03-04T07:46:14.779Z,2.00
2019-03-04T07:48:41.712Z,1.90
2019-03-04T07:51:11.478Z,2.10
2019-03-04T07:53:46.024Z,1.70
2019-03-04T07:56:05.367Z,2.17
2019-03-04T07:58:32.295Z,2.30
2019-03-04T08:00:59.264Z,1.97
2019-03-04T08:03:26.205Z,1.80
2019-03-04T08:05:53.155Z,1.87
2019-03-04T08:08:20.105Z,2.23
2019-03-04T08:11:16.045Z,1.80
2019-03-04T08:13:48.344Z,2.40
2019-03-04T08:16:15.304Z,2.17
2019-03-04T08:18:42.244Z,1.90
2019-03-04T08:21:09.199Z,1.47
2019-03-04T08:23:36.153Z,1.80
2019-03-04T08:26:03.122Z,1.97
2019-03-04T08:28:30.069Z,1.80
2019-03-04T08:30:56.996Z,1.20
2019-03-04T08:33:24.372Z,1.13
2019-03-04T08:35:51.378Z,1.40
2019-03-04T08:38:18.317Z,1.37
2019-03-04T08:40:45.300Z,1.40
2019-03-04T08:43:12.308Z,1.50
2019-03-04T08:45:39.289Z,1.07
2019-03-04T08:48:06.218Z,1.40
2019-03-04T08:50:33.186Z,0.90
2019-03-04T08:53:00.129Z,0.70
2019-03-04T08:55:27.077Z,0.67
2019-03-04T08:57:54.064Z,0.80
2019-03-04T09:00:23.570Z,0.60
2019-03-04T09:02:50.508Z,0.63
2019-03-04T09:05:17.455Z,0.50
2019-03-04T09:07:44.406Z,0.60
2019-03-04T09:10:14.873Z,0.70
2019-03-04T09:12:41.835Z,0.70
2019-03-04T09:15:08.837Z,0.60
2019-03-04T09:17:35.812Z,0.60
2019-03-04T09:20:03.314Z,0.70
2019-03-04T09:22:30.249Z,0.77
2019-03-04T09:24:57.205Z,0.70
2019-03-04T09:27:24.163Z,0.90
2019-03-04T09:29:51.292Z,1.00
2019-03-04T09:32:18.233Z,0.93
2019-03-04T09:34:45.807Z,1.07
2019-03-04T09:37:12.691Z,0.90
2019-03-04T09:39:40.573Z,0.80
2019-03-04T09:42:12.434Z,0.60
2019-03-04T09:44:39.356Z,0.63
2019-03-04T09:47:06.338Z,0.50
2019-03-04T09:49:33.275Z,0.60
2019-03-04T09:52:00.331Z,1.50
2019-03-04T09:54:27.211Z,0.60
2019-03-04T09:56:54.173Z,0.50
2019-03-04T09:59:21.108Z,0.60
2019-03-04T10:01:52.243Z,0.60
2019-03-04T10:04:43.576Z,0.60
2019-03-04T10:07:20.949Z,0.70
2019-03-04T10:09:59.688Z,0.60
2019-03-04T10:12:39.604Z,0.50
2019-03-04T10:15:16.104Z,0.73
2019-03-04T10:18:08.140Z,0.80
2019-03-04T10:20:54.759Z,0.60
2019-03-04T10:23:28.639Z,0.90
2019-03-04T10:26:21.930Z,0.73
2019-03-04T10:29:05.432Z,0.70
2019-03-04T10:31:56.174Z,0.60
2019-03-04T10:34:58.234Z,0.93
2019-03-04T10:37:35.303Z,0.90
2019-03-04T10:40:23.699Z,0.90
2019-03-04T10:43:07.143Z,0.90
2019-03-04T10:45:41.203Z,1.00
2019-03-04T10:48:08.143Z,0.73
2019-03-04T10:50:35.072Z,1.10
2019-03-04T10:53:02.048Z,0.83
2019-03-04T10:55:29.001Z,1.00
2019-03-04T10:57:55.931Z,1.10
2019-03-04T11:00:22.907Z,0.90
2019-03-04T11:02:49.898Z,0.90
2019-03-04T11:05:16.819Z,1.30
2019-03-04T11:07:43.769Z,1.40
2019-03-04T11:10:10.724Z,1.00
2019-03-04T11:12:37.659Z,0.77
2019-03-04T11:15:07.673Z,1.17
2019-03-04T11:17:34.617Z,1.20
2019-03-04T11:20:01.548Z,0.97
2019-03-04T11:22:28.476Z,0.90
2019-03-04T11:24:55.423Z,1.00
2019-03-04T11:27:22.348Z,1.00
2019-03-04T11:29:49.307Z,1.00
2019-03-04T11:32:16.272Z,1.03
2019-03-04T11:34:43.200Z,0.97
2019-03-04T11:37:10.139Z,1.40
2019-03-04T11:40:00.679Z,1.10
2019-03-04T11:42:27.635Z,1.30
2019-03-04T11:44:54.580Z,1.57
2019-03-04T11:47:25.248Z,1.33
2019-03-04T11:49:53.447Z,1.10
2019-03-04T11:52:19.253Z,1.50
2019-03-04T11:54:46.259Z,1.23
2019-03-04T11:57:13.148Z,1.20
2019-03-04T11:59:40.099Z,1.30
2019-03-04T12:02:09.891Z,1.60
2019-03-04T12:04:36.813Z,1.60
2019-03-04T12:07:03.748Z,1.33
2019-03-04T12:09:30.712Z,1.33
2019-03-04T12:11:57.678Z,1.20
2019-03-04T12:14:24.620Z,1.67
2019-03-04T12:16:51.580Z,1.57
2019-03-04T12:19:18.524Z,1.20
2019-03-04T12:21:45.472Z,1.37
2019-03-04T12:24:12.622Z,1.20
2019-03-04T12:26:39.589Z,1.40
2019-03-04T12:29:06.554Z,1.60
2019-03-04T12:31:37.572Z,1.57
2019-03-04T12:34:04.528Z,1.20
2019-03-04T12:36:31.477Z,1.50
2019-03-04T12:38:58.440Z,1.57
2019-03-04T12:41:25.640Z,1.67
2019-03-04T12:43:52.573Z,1.50
2019-03-04T12:46:19.555Z,1.27
2019-03-04T12:48:46.501Z,1.33
2019-03-04T12:51:22.392Z,1.37
2019-03-04T12:53:40.427Z,1.50
2019-03-04T12:56:07.363Z,1.73
2019-03-04T12:58:34.310Z,1.90
2019-03-04T13:01:01.275Z,1.27
2019-03-04T13:03:28.233Z,1.53
2019-03-04T13:05:55.175Z,1.83
2019-03-04T13:08:22.157Z,1.53
2019-03-04T13:10:49.092Z,1.37
2019-03-04T13:13:16.086Z,1.77
2019-03-04T13:15:43.041Z,2.17
2019-03-04T13:18:10.088Z,1.77
2019-03-04T13:20:37.040Z,1.60
2019-03-04T13:23:04.021Z,1.37
2019-03-04T13:25:30.994Z,1.87
2019-03-04T13:28:08.216Z,1.20
2019-03-04T13:30:28.143Z,1.77
2019-03-04T13:32:55.105Z,1.70
2019-03-04T13:35:24.720Z,1.20
2019-03-04T13:37:49.083Z,1.63
2019-03-04T13:40:16.006Z,1.70
2019-03-04T13:42:44.231Z,1.43
2019-03-04T13:45:11.911Z,1.50
2019-03-04T13:47:38.836Z,1.60
2019-03-04T13:50:08.873Z,1.67
2019-03-04T13:52:35.829Z,1.47
2019-03-04T13:55:02.983Z,2.23
2019-03-04T13:57:29.942Z,2.70
2019-03-04T13:59:56.921Z,1.43
2019-03-04T14:02:23.900Z,1.40
2019-03-04T14:04:50.832Z,1.73
2019-03-04T14:07:17.825Z,1.57
2019-03-04T14:09:44.816Z,1.33
2019-03-04T14:12:11.771Z,1.83
2019-03-04T14:14:38.757Z,1.50
2019-03-04T14:17:05.694Z,1.60
2019-03-04T14:19:32.631Z,1.60
2019-03-04T14:21:59.575Z,1.33
2019-03-04T14:24:26.525Z,1.30
2019-03-04T14:26:53.507Z,1.20
2019-03-04T14:29:20.461Z,1.30
2019-03-04T14:31:47.410Z,1.30
2019-03-04T14:34:14.356Z,1.23
2019-03-04T14:36:41.348Z,1.40
2019-03-04T14:39:12.654Z,1.13
2019-03-04T14:41:39.596Z,1.47
2019-03-04T14:44:07.704Z,1.23
2019-03-04T14:46:34.637Z,1.60
2019-03-04T14:49:01.577Z,1.27
2019-03-04T14:51:28.536Z,1.37
2019-03-04T14:53:55.509Z,1.60
2019-03-04T14:56:22.850Z,1.60
2019-03-04T14:58:49.450Z,1.10
2019-03-04T15:01:16.382Z,1.20
2019-03-04T15:03:43.325Z,1.57
2019-03-04T15:06:10.372Z,1.23
2019-03-04T15:08:37.334Z,1.10
2019-03-04T15:11:04.294Z,1.30
2019-03-04T15:13:31.236Z,1.40
2019-03-04T15:16:01.699Z,1.00
2019-03-04T15:18:25.088Z,1.00
2019-03-04T15:20:52.028Z,1.47
2019-03-04T15:23:19.001Z,1.57
2019-03-04T15:25:45.943Z,0.90
2019-03-04T15:28:14.970Z,1.03
2019-03-04T15:30:42.929Z,1.17
2019-03-04T15:33:17.487Z,1.10
2019-03-04T15:35:36.875Z,1.30
2019-03-04T15:38:03.982Z,1.33
2019-03-04T15:40:30.921Z,1.20
2019-03-04T15:42:57.879Z,1.10
2019-03-04T15:45:25.198Z,1.07
2019-03-04T15:47:52.159Z,1.33
2019-03-04T15:50:19.128Z,1.70
2019-03-04T15:52:46.145Z,1.17
2019-03-04T15:55:13.080Z,1.40
2019-03-04T15:57:40.050Z,1.40
2019-03-04T16:00:08.658Z,1.30
2019-03-04T16:02:35.588Z,1.40
2019-03-04T16:05:02.698Z,1.40
2019-03-04T16:07:29.647Z,1.40
2019-03-04T16:09:56.594Z,1.57
2019-03-04T16:12:23.572Z,1.17
2019-03-04T16:14:50.570Z,1.10
2019-03-04T16:17:17.581Z,1.33
2019-03-04T16:19:44.543Z,1.13
2019-03-04T16:22:11.472Z,0.73
2019-03-04T16:24:38.400Z,0.83
2019-03-04T16:27:08.769Z,0.90
2019-03-04T16:29:37.334Z,0.50
2019-03-04T16:32:02.736Z,0.70
2019-03-04T16:34:29.727Z,0.50
2019-03-04T16:36:56.672Z,0.70
2019-03-04T16:39:23.633Z,0.50
2019-03-04T16:41:50.591Z,0.73
2019-03-04T16:44:17.541Z,0.60
2019-03-04T16:46:44.692Z,0.40
2019-03-04T16:49:11.639Z,0.70
2019-03-04T16:51:38.629Z,0.43
2019-03-04T16:54:05.622Z,0.33
2019-03-04T16:56:32.564Z,0.60
2019-03-04T16:58:59.489Z,0.70
2019-03-04T17:01:26.445Z,0.50
2019-03-04T17:03:53.396Z,0.60
2019-03-04T17:06:20.333Z,0.53
2019-03-04T17:08:47.265Z,0.87
2019-03-04T17:11:14.235Z,1.80
2019-03-04T17:13:41.197Z,0.70
2019-03-04T17:16:08.232Z,0.73
2019-03-04T17:18:35.221Z,0.93
2019-03-04T17:21:02.249Z,0.80
2019-03-04T17:23:29.183Z,0.80
2019-03-04T17:25:56.149Z,0.60
2019-03-04T17:28:23.218Z,0.80
2019-03-04T17:30:50.172Z,0.70
2019-03-04T17:33:17.130Z,0.70
2019-03-04T17:35:44.056Z,0.80
2019-03-04T17:38:11.023Z,0.63
2019-03-04T17:40:37.980Z,0.70
2019-03-04T17:43:04.919Z,0.77
2019-03-04T17:45:31.863Z,0.93
2019-03-04T17:47:59.839Z,0.70
2019-03-04T17:50:29.787Z,0.60
2019-03-04T17:52:56.758Z,0.73
2019-03-04T17:55:23.761Z,0.77
2019-03-04T17:57:50.741Z,0.90
2019-03-04T18:00:17.678Z,0.70
2019-03-04T18:02:44.737Z,0.70
2019-03-04T18:05:11.685Z,0.73
2019-03-04T18:07:38.623Z,1.90
2019-03-04T18:10:08.360Z,0.63
2019-03-04T18:12:35.305Z,0.80
2019-03-04T18:15:02.285Z,0.90
2019-03-04T18:17:29.279Z,0.60
2019-03-04T18:19:56.267Z,0.90
2019-03-04T18:22:23.193Z,0.70
2019-03-04T18:24:50.249Z,0.83
2019-03-04T18:27:21.800Z,0.70
2019-03-04T18:30:21.260Z,0.70
2019-03-04T18:33:20.555Z,0.70
2019-03-04T18:36:20.397Z,1.17
2019-03-04T18:39:19.050Z,0.60
2019-03-04T18:42:16.375Z,0.60
2019-03-04T18:44:55.215Z,0.93
2019-03-04T18:47:47.599Z,0.60
2019-03-04T18:50:16.244Z,0.90
2019-03-04T18:52:43.171Z,0.80
2019-03-04T18:55:10.156Z,0.53
2019-03-04T18:57:37.107Z,0.60
2019-03-04T19:00:09.537Z,0.90
2019-03-04T19:02:36.500Z,0.90
2019-03-04T19:05:03.767Z,0.87
2019-03-04T19:07:30.704Z,1.10
2019-03-04T19:09:57.669Z,1.10
2019-03-04T19:12:24.640Z,1.33
2019-03-04T19:14:51.633Z,1.00
2019-03-04T19:17:18.596Z,0.80
2019-03-04T19:19:59.078Z,1.30
2019-03-04T19:22:25.528Z,1.27
2019-03-04T19:24:52.509Z,1.40
2019-03-04T19:27:19.451Z,1.40
2019-03-04T19:29:46.408Z,1.53
2019-03-04T19:32:13.372Z,0.90
2019-03-04T19:34:40.303Z,0.80
2019-03-04T19:37:07.273Z,1.30
2019-03-04T19:39:34.238Z,1.10
2019-03-04T19:42:01.187Z,0.90
2019-03-04T19:44:28.217Z,0.97
2019-03-04T19:46:55.160Z,1.20
2019-03-04T19:49:22.405Z,1.00
2019-03-04T19:51:51.030Z,1.00
2019-03-04T19:54:18.289Z,1.27
2019-03-04T19:56:45.436Z,1.20
2019-03-04T19:59:13.012Z,1.17
2019-03-04T20:01:39.439Z,1.00
2019-03-04T20:04:06.387Z,1.20
2019-03-04T20:06:33.345Z,0.90
2019-03-04T20:09:00.304Z,0.90
2019-03-04T20:11:27.252Z,0.80
2019-03-04T20:13:54.233Z,1.07
2019-03-04T20:16:21.202Z,0.80
2019-03-04T20:18:48.158Z,0.73
2019-03-04T20:21:15.200Z,1.20
2019-03-04T20:23:42.158Z,0.87
2019-03-04T20:26:09.082Z,0.90
2019-03-04T20:28:36.081Z,0.70
2019-03-04T20:31:03.044Z,0.80
2019-03-04T20:33:30.013Z,0.73
2019-03-04T20:35:56.997Z,0.93
2019-03-04T20:38:28.036Z,0.80
2019-03-04T20:40:54.981Z,0.83
2019-03-04T20:43:21.980Z,0.60
2019-03-04T20:45:48.953Z,0.60
2019-03-04T20:48:15.909Z,0.57
2019-03-04T20:50:42.872Z,0.70
2019-03-04T20:53:11.237Z,0.70
2019-03-04T20:55:38.197Z,0.60
2019-03-04T20:58:05.162Z,0.60
2019-03-04T21:00:33.318Z,0.50
2019-03-04T21:03:00.281Z,0.77
2019-03-04T21:05:27.434Z,1.30
2019-03-04T21:07:54.389Z,0.50
2019-03-04T21:10:21.331Z,0.50
2019-03-04T21:12:48.702Z,0.60
2019-03-04T21:15:15.764Z,0.70
2019-03-04T21:17:42.731Z,0.63
2019-03-04T21:20:09.768Z,0.50
2019-03-04T21:22:36.697Z,0.50
2019-03-04T21:25:03.836Z,0.50
2019-03-04T21:27:30.799Z,0.40
2019-03-04T21:30:24.877Z,0.50
2019-03-04T21:33:07.489Z,0.57
2019-03-04T21:36:19.485Z,0.60
2019-03-04T21:38:46.449Z,0.50
2019-03-04T21:41:22.798Z,0.67
2019-03-04T21:43:57.235Z,0.60
2019-03-04T21:46:52.948Z,0.43
2019-03-04T21:49:19.944Z,0.50
2019-03-04T21:51:58.842Z,0.50
2019-03-04T21:54:26.154Z,0.60
2019-03-04T21:56:59.657Z,0.40
2019-03-04T21:59:26.644Z,0.97
2019-03-04T22:02:00.255Z,0.70
2019-03-04T22:04:27.188Z,4.80
2019-03-04T22:06:54.204Z,3.47
2019-03-04T22:09:21.207Z,2.10
2019-03-04T22:11:48.144Z,2.67
2019-03-04T22:14:15.107Z,1.60
2019-03-04T22:16:42.076Z,0.93
2019-03-04T22:19:09.055Z,0.90
2019-03-04T22:21:36.016Z,0.80
2019-03-04T22:24:02.990Z,0.80
2019-03-04T22:26:30.035Z,0.50
2019-03-04T22:28:57.148Z,0.90
2019-03-04T22:31:24.097Z,0.70
2019-03-04T22:33:51.045Z,0.70
2019-03-04T22:36:18.024Z,0.67
2019-03-04T22:38:45.029Z,0.97
2019-03-04T22:41:13.777Z,0.87
2019-03-04T22:43:39.044Z,0.90
2019-03-04T22:46:05.996Z,1.07
2019-03-04T22:48:32.940Z,0.93
2019-03-04T22:50:59.905Z,0.90
2019-03-04T22:53:26.871Z,0.90
2019-03-04T22:55:54.228Z,0.90
2019-03-04T22:58:28.465Z,0.87
2019-03-04T23:01:36.854Z,1.00
2019-03-04T23:04:10.379Z,1.00
2019-03-04T23:06:38.518Z,0.83
2019-03-04T23:09:08.129Z,0.77
2019-03-04T23:11:35.132Z,0.70
2019-03-04T23:14:07.680Z,0.90
2019-03-04T23:16:35.014Z,0.90
2019-03-04T23:19:01.984Z,0.77
2019-03-04T23:21:29.141Z,0.70
2019-03-04T23:23:56.631Z,0.93
2019-03-04T23:26:23.610Z,0.80
2019-03-04T23:28:52.134Z,0.90
2019-03-04T23:31:19.096Z,0.97
2019-03-04T23:33:46.037Z,1.00
2019-03-04T23:36:13.039Z,0.90
2019-03-04T23:38:39.993Z,0.70
2019-03-04T23:41:06.960Z,0.70
2019-03-04T23:43:34.244Z,0.83
2019-03-04T23:46:01.191Z,0.77
2019-03-04T23:48:28.137Z,1.53
2019-03-04T23:50:55.087Z,0.70
2019-03-04T23:53:22.035Z,0.87
2019-03-04T23:55:49.076Z,0.73
2019-03-04T23:58:17.533Z,0.90
